sensor_id;sensor_type;location;lat;lon;timestamp;temperature;humidity
35497;DHT22;21609;49.298;6.844;2023-04-09T00:00:23;18.60;50.10
35497;DHT22;21609;49.298;6.844;2023-04-09T00:02:48;18.60;50.10
35497;DHT22;21609;49.298;6.844;2023-04-09T00:05:14;18.50;50.10
35497;DHT22;21609;49.298;6.844;2023-04-09T00:07:40;18.50;50.10
35497;DHT22;21609;49.298;6.844;2023-04-09T00:10:06;18.50;50.10
35497;DHT22;21609;49.298;6.844;2023-04-09T00:12:32;18.50;50.10
35497;DHT22;21609;49.298;6.844;2023-04-09T00:14:57;18.50;50.10
35497;DHT22;21609;49.298;6.844;2023-04-09T00:17:23;18.50;50.10
35497;DHT22;21609;49.298;6.844;2023-04-09T00:19:48;18.50;50.20
35497;DHT22;21609;49.298;6.844;2023-04-09T00:22:14;18.50;50.20
35497;DHT22;21609;49.298;6.844;2023-04-09T00:24:40;18.50;50.10
35497;DHT22;21609;49.298;6.844;2023-04-09T00:27:06;18.40;50.10
35497;DHT22;21609;49.298;6.844;2023-04-09T00:29:31;18.50;50.20
35497;DHT22;21609;49.298;6.844;2023-04-09T00:31:57;18.40;50.10
35497;DHT22;21609;49.298;6.844;2023-04-09T00:34:22;18.40;50.10
35497;DHT22;21609;49.298;6.844;2023-04-09T00:36:48;18.40;50.20
35497;DHT22;21609;49.298;6.844;2023-04-09T00:39:13;18.40;50.20
35497;DHT22;21609;49.298;6.844;2023-04-09T00:41:39;18.40;50.20
35497;DHT22;21609;49.298;6.844;2023-04-09T00:44:04;18.40;50.20
35497;DHT22;21609;49.298;6.844;2023-04-09T00:46:30;18.40;50.20
35497;DHT22;21609;49.298;6.844;2023-04-09T00:48:56;18.30;50.20
35497;DHT22;21609;49.298;6.844;2023-04-09T00:51:22;18.30;50.20
35497;DHT22;21609;49.298;6.844;2023-04-09T00:53:48;18.40;50.20
35497;DHT22;21609;49.298;6.844;2023-04-09T00:56:15;18.40;50.30
35497;DHT22;21609;49.298;6.844;2023-04-09T00:58:41;18.30;50.20
35497;DHT22;21609;49.298;6.844;2023-04-09T01:01:07;18.30;50.20
35497;DHT22;21609;49.298;6.844;2023-04-09T01:03:32;18.30;50.20
35497;DHT22;21609;49.298;6.844;2023-04-09T01:06:07;18.30;50.30
35497;DHT22;21609;49.298;6.844;2023-04-09T01:11:36;18.30;50.30
35497;DHT22;21609;49.298;6.844;2023-04-09T01:14:13;18.30;50.30
35497;DHT22;21609;49.298;6.844;2023-04-09T01:16:43;18.20;50.30
35497;DHT22;21609;49.298;6.844;2023-04-09T01:19:43;18.30;50.30
35497;DHT22;21609;49.298;6.844;2023-04-09T01:25:06;18.20;50.40
35497;DHT22;21609;49.298;6.844;2023-04-09T01:27:43;18.30;50.40
35497;DHT22;21609;49.298;6.844;2023-04-09T01:30:11;18.20;50.30
35497;DHT22;21609;49.298;6.844;2023-04-09T01:32:39;18.20;50.30
35497;DHT22;21609;49.298;6.844;2023-04-09T01:35:06;18.20;50.30
35497;DHT22;21609;49.298;6.844;2023-04-09T01:37:33;18.20;50.30
35497;DHT22;21609;49.298;6.844;2023-04-09T01:39:59;18.20;50.40
35497;DHT22;21609;49.298;6.844;2023-04-09T01:42:26;18.20;50.30
35497;DHT22;21609;49.298;6.844;2023-04-09T01:44:53;18.20;50.40
35497;DHT22;21609;49.298;6.844;2023-04-09T01:47:18;18.20;50.40
35497;DHT22;21609;49.298;6.844;2023-04-09T01:49:45;18.20;50.40
35497;DHT22;21609;49.298;6.844;2023-04-09T01:52:11;18.10;50.30
35497;DHT22;21609;49.298;6.844;2023-04-09T01:54:37;18.10;50.40
35497;DHT22;21609;49.298;6.844;2023-04-09T01:57:02;18.10;50.30
35497;DHT22;21609;49.298;6.844;2023-04-09T01:59:28;18.10;50.40
35497;DHT22;21609;49.298;6.844;2023-04-09T02:02:00;18.10;50.40
35497;DHT22;21609;49.298;6.844;2023-04-09T02:04:32;18.10;50.40
35497;DHT22;21609;49.298;6.844;2023-04-09T02:07:46;18.10;50.40
35497;DHT22;21609;49.298;6.844;2023-04-09T02:09:47;18.10;50.40
35497;DHT22;21609;49.298;6.844;2023-04-09T02:12:16;18.10;50.40
35497;DHT22;21609;49.298;6.844;2023-04-09T02:14:45;18.10;50.40
35497;DHT22;21609;49.298;6.844;2023-04-09T02:17:12;18.10;50.40
35497;DHT22;21609;49.298;6.844;2023-04-09T02:19:45;18.10;50.50
35497;DHT22;21609;49.298;6.844;2023-04-09T02:22:11;18.00;50.40
35497;DHT22;21609;49.298;6.844;2023-04-09T02:24:37;18.00;51.00
35497;DHT22;21609;49.298;6.844;2023-04-09T02:27:04;18.00;50.50
35497;DHT22;21609;49.298;6.844;2023-04-09T02:29:30;18.00;50.50
35497;DHT22;21609;49.298;6.844;2023-04-09T02:31:56;18.00;50.50
35497;DHT22;21609;49.298;6.844;2023-04-09T02:34:22;18.00;50.50
35497;DHT22;21609;49.298;6.844;2023-04-09T02:36:47;18.00;51.10
35497;DHT22;21609;49.298;6.844;2023-04-09T02:39:13;18.00;50.50
35497;DHT22;21609;49.298;6.844;2023-04-09T02:41:38;18.00;50.50
35497;DHT22;21609;49.298;6.844;2023-04-09T02:44:04;18.00;50.60
35497;DHT22;21609;49.298;6.844;2023-04-09T02:46:30;18.00;50.50
35497;DHT22;21609;49.298;6.844;2023-04-09T02:48:55;17.90;50.50
35497;DHT22;21609;49.298;6.844;2023-04-09T02:51:21;17.90;50.60
35497;DHT22;21609;49.298;6.844;2023-04-09T02:53:46;17.90;50.50
35497;DHT22;21609;49.298;6.844;2023-04-09T02:56:12;17.90;50.50
35497;DHT22;21609;49.298;6.844;2023-04-09T02:58:38;17.90;50.50
35497;DHT22;21609;49.298;6.844;2023-04-09T03:01:03;17.90;50.50
35497;DHT22;21609;49.298;6.844;2023-04-09T03:03:29;17.90;50.50
35497;DHT22;21609;49.298;6.844;2023-04-09T03:05:56;17.90;50.50
35497;DHT22;21609;49.298;6.844;2023-04-09T03:08:21;17.90;50.60
35497;DHT22;21609;49.298;6.844;2023-04-09T03:10:47;17.90;50.60
35497;DHT22;21609;49.298;6.844;2023-04-09T03:13:13;17.90;50.60
35497;DHT22;21609;49.298;6.844;2023-04-09T03:15:38;17.90;50.60
35497;DHT22;21609;49.298;6.844;2023-04-09T03:18:04;17.80;50.50
35497;DHT22;21609;49.298;6.844;2023-04-09T03:20:29;17.80;50.50
35497;DHT22;21609;49.298;6.844;2023-04-09T03:22:55;17.80;50.50
35497;DHT22;21609;49.298;6.844;2023-04-09T03:25:21;17.80;50.50
35497;DHT22;21609;49.298;6.844;2023-04-09T03:27:46;17.80;50.50
35497;DHT22;21609;49.298;6.844;2023-04-09T03:30:12;17.80;50.50
35497;DHT22;21609;49.298;6.844;2023-04-09T03:32:37;17.80;50.50
35497;DHT22;21609;49.298;6.844;2023-04-09T03:35:03;17.80;50.60
35497;DHT22;21609;49.298;6.844;2023-04-09T03:37:29;17.80;51.10
35497;DHT22;21609;49.298;6.844;2023-04-09T03:39:54;17.80;50.60
35497;DHT22;21609;49.298;6.844;2023-04-09T03:42:20;17.70;50.50
35497;DHT22;21609;49.298;6.844;2023-04-09T03:44:45;17.80;50.50
35497;DHT22;21609;49.298;6.844;2023-04-09T03:47:11;17.80;50.60
35497;DHT22;21609;49.298;6.844;2023-04-09T03:49:37;17.70;50.60
35497;DHT22;21609;49.298;6.844;2023-04-09T03:52:02;17.70;50.60
35497;DHT22;21609;49.298;6.844;2023-04-09T03:54:28;17.70;50.60
35497;DHT22;21609;49.298;6.844;2023-04-09T03:56:54;17.70;50.50
35497;DHT22;21609;49.298;6.844;2023-04-09T03:59:20;17.70;50.60
35497;DHT22;21609;49.298;6.844;2023-04-09T04:01:46;17.70;50.60
35497;DHT22;21609;49.298;6.844;2023-04-09T04:04:12;17.70;50.60
35497;DHT22;21609;49.298;6.844;2023-04-09T04:06:38;17.70;50.60
35497;DHT22;21609;49.298;6.844;2023-04-09T04:09:03;17.60;50.60
35497;DHT22;21609;49.298;6.844;2023-04-09T04:11:29;17.60;50.60
35497;DHT22;21609;49.298;6.844;2023-04-09T04:13:55;17.60;50.60
35497;DHT22;21609;49.298;6.844;2023-04-09T04:16:21;17.60;50.60
35497;DHT22;21609;49.298;6.844;2023-04-09T04:18:46;17.70;50.60
35497;DHT22;21609;49.298;6.844;2023-04-09T04:21:13;17.60;50.60
35497;DHT22;21609;49.298;6.844;2023-04-09T04:23:39;17.70;50.60
35497;DHT22;21609;49.298;6.844;2023-04-09T04:26:08;17.60;50.60
35497;DHT22;21609;49.298;6.844;2023-04-09T04:28:35;17.60;50.60
35497;DHT22;21609;49.298;6.844;2023-04-09T04:31:01;17.60;50.60
35497;DHT22;21609;49.298;6.844;2023-04-09T04:33:27;17.60;50.60
35497;DHT22;21609;49.298;6.844;2023-04-09T04:35:53;17.60;50.70
35497;DHT22;21609;49.298;6.844;2023-04-09T04:38:18;17.60;50.70
35497;DHT22;21609;49.298;6.844;2023-04-09T04:40:44;17.60;50.70
35497;DHT22;21609;49.298;6.844;2023-04-09T04:43:09;17.60;50.70
35497;DHT22;21609;49.298;6.844;2023-04-09T04:45:35;17.50;50.60
35497;DHT22;21609;49.298;6.844;2023-04-09T04:48:00;17.50;50.60
35497;DHT22;21609;49.298;6.844;2023-04-09T04:50:26;17.60;50.70
35497;DHT22;21609;49.298;6.844;2023-04-09T04:52:51;17.50;50.70
35497;DHT22;21609;49.298;6.844;2023-04-09T04:55:17;17.50;50.60
35497;DHT22;21609;49.298;6.844;2023-04-09T04:57:42;17.40;49.70
35497;DHT22;21609;49.298;6.844;2023-04-09T05:00:08;17.40;50.40
35497;DHT22;21609;49.298;6.844;2023-04-09T05:02:34;17.50;50.70
35497;DHT22;21609;49.298;6.844;2023-04-09T05:05:00;17.50;49.90
35497;DHT22;21609;49.298;6.844;2023-04-09T05:07:25;17.40;50.50
35497;DHT22;21609;49.298;6.844;2023-04-09T05:09:51;17.50;50.60
35497;DHT22;21609;49.298;6.844;2023-04-09T05:12:16;17.60;50.40
35497;DHT22;21609;49.298;6.844;2023-04-09T05:14:42;17.70;50.30
35497;DHT22;21609;49.298;6.844;2023-04-09T05:17:08;17.80;50.10
35497;DHT22;21609;49.298;6.844;2023-04-09T05:19:33;17.80;50.00
35497;DHT22;21609;49.298;6.844;2023-04-09T05:21:59;17.80;50.00
35497;DHT22;21609;49.298;6.844;2023-04-09T05:24:25;17.90;50.00
35497;DHT22;21609;49.298;6.844;2023-04-09T05:26:50;17.90;49.90
35497;DHT22;21609;49.298;6.844;2023-04-09T05:29:16;17.90;49.90
35497;DHT22;21609;49.298;6.844;2023-04-09T05:31:41;17.90;49.80
35497;DHT22;21609;49.298;6.844;2023-04-09T05:34:07;18.00;49.80
35497;DHT22;21609;49.298;6.844;2023-04-09T05:36:33;18.00;49.80
35497;DHT22;21609;49.298;6.844;2023-04-09T05:38:58;18.10;50.00
35497;DHT22;21609;49.298;6.844;2023-04-09T05:41:24;18.10;50.00
35497;DHT22;21609;49.298;6.844;2023-04-09T05:43:49;18.10;50.00
35497;DHT22;21609;49.298;6.844;2023-04-09T05:46:15;18.10;50.00
35497;DHT22;21609;49.298;6.844;2023-04-09T05:48:40;18.20;50.10
35497;DHT22;21609;49.298;6.844;2023-04-09T05:51:06;18.10;50.10
35497;DHT22;21609;49.298;6.844;2023-04-09T05:53:33;18.20;50.10
35497;DHT22;21609;49.298;6.844;2023-04-09T05:55:59;18.30;50.10
35497;DHT22;21609;49.298;6.844;2023-04-09T05:58:27;18.30;50.00
35497;DHT22;21609;49.298;6.844;2023-04-09T06:00:52;18.30;50.00
35497;DHT22;21609;49.298;6.844;2023-04-09T06:03:18;18.30;50.00
35497;DHT22;21609;49.298;6.844;2023-04-09T06:05:44;18.40;50.20
35497;DHT22;21609;49.298;6.844;2023-04-09T06:08:11;18.40;50.10
35497;DHT22;21609;49.298;6.844;2023-04-09T06:10:37;18.50;50.20
35497;DHT22;21609;49.298;6.844;2023-04-09T06:13:02;18.50;50.20
35497;DHT22;21609;49.298;6.844;2023-04-09T06:15:28;18.60;50.30
35497;DHT22;21609;49.298;6.844;2023-04-09T06:17:53;18.60;50.30
35497;DHT22;21609;49.298;6.844;2023-04-09T06:20:19;18.60;50.20
35497;DHT22;21609;49.298;6.844;2023-04-09T06:22:45;18.70;50.10
35497;DHT22;21609;49.298;6.844;2023-04-09T06:25:11;18.70;50.20
35497;DHT22;21609;49.298;6.844;2023-04-09T06:27:36;18.80;50.20
35497;DHT22;21609;49.298;6.844;2023-04-09T06:30:02;18.90;50.20
35497;DHT22;21609;49.298;6.844;2023-04-09T06:32:27;18.80;50.10
35497;DHT22;21609;49.298;6.844;2023-04-09T06:34:53;18.90;50.20
35497;DHT22;21609;49.298;6.844;2023-04-09T06:37:18;18.90;50.20
35497;DHT22;21609;49.298;6.844;2023-04-09T06:39:44;19.00;50.20
35497;DHT22;21609;49.298;6.844;2023-04-09T06:42:09;19.10;50.10
35497;DHT22;21609;49.298;6.844;2023-04-09T06:44:35;19.10;50.10
35497;DHT22;21609;49.298;6.844;2023-04-09T06:47:01;19.10;50.10
35497;DHT22;21609;49.298;6.844;2023-04-09T06:49:26;19.10;50.10
35497;DHT22;21609;49.298;6.844;2023-04-09T06:51:52;19.10;50.10
35497;DHT22;21609;49.298;6.844;2023-04-09T06:54:18;19.20;50.10
35497;DHT22;21609;49.298;6.844;2023-04-09T06:56:44;19.30;50.00
35497;DHT22;21609;49.298;6.844;2023-04-09T06:59:10;19.30;50.00
35497;DHT22;21609;49.298;6.844;2023-04-09T07:01:36;19.40;50.10
35497;DHT22;21609;49.298;6.844;2023-04-09T07:04:02;19.40;50.10
35497;DHT22;21609;49.298;6.844;2023-04-09T07:06:27;19.50;50.10
35497;DHT22;21609;49.298;6.844;2023-04-09T07:08:53;19.50;50.10
35497;DHT22;21609;49.298;6.844;2023-04-09T07:11:18;19.50;50.00
35497;DHT22;21609;49.298;6.844;2023-04-09T07:13:44;19.60;50.10
35497;DHT22;21609;49.298;6.844;2023-04-09T07:16:10;19.60;50.10
35497;DHT22;21609;49.298;6.844;2023-04-09T07:18:35;19.70;49.90
35497;DHT22;21609;49.298;6.844;2023-04-09T07:21:01;19.70;50.00
35497;DHT22;21609;49.298;6.844;2023-04-09T07:23:26;19.80;50.50
35497;DHT22;21609;49.298;6.844;2023-04-09T07:25:52;19.90;49.90
35497;DHT22;21609;49.298;6.844;2023-04-09T07:28:17;19.90;49.80
35497;DHT22;21609;49.298;6.844;2023-04-09T07:30:43;20.00;49.80
35497;DHT22;21609;49.298;6.844;2023-04-09T07:33:10;20.00;49.70
35497;DHT22;21609;49.298;6.844;2023-04-09T07:35:36;20.00;49.70
35497;DHT22;21609;49.298;6.844;2023-04-09T07:38:01;20.10;49.60
35497;DHT22;21609;49.298;6.844;2023-04-09T07:40:27;20.20;50.00
35497;DHT22;21609;49.298;6.844;2023-04-09T07:42:52;20.20;49.60
35497;DHT22;21609;49.298;6.844;2023-04-09T07:45:20;20.30;49.70
35497;DHT22;21609;49.298;6.844;2023-04-09T07:47:45;20.30;49.50
35497;DHT22;21609;49.298;6.844;2023-04-09T07:50:11;20.40;49.40
35497;DHT22;21609;49.298;6.844;2023-04-09T07:52:37;20.50;49.50
35497;DHT22;21609;49.298;6.844;2023-04-09T07:55:02;20.50;49.50
35497;DHT22;21609;49.298;6.844;2023-04-09T07:57:30;20.50;49.50
35497;DHT22;21609;49.298;6.844;2023-04-09T07:59:57;20.70;50.10
35497;DHT22;21609;49.298;6.844;2023-04-09T08:02:23;20.70;49.50
35497;DHT22;21609;49.298;6.844;2023-04-09T08:04:48;20.70;49.50
35497;DHT22;21609;49.298;6.844;2023-04-09T08:07:14;20.70;49.50
35497;DHT22;21609;49.298;6.844;2023-04-09T08:09:40;20.70;49.60
35497;DHT22;21609;49.298;6.844;2023-04-09T08:12:05;20.80;49.50
35497;DHT22;21609;49.298;6.844;2023-04-09T08:14:31;20.80;49.50
35497;DHT22;21609;49.298;6.844;2023-04-09T08:16:56;20.80;49.40
35497;DHT22;21609;49.298;6.844;2023-04-09T08:19:22;20.90;49.40
35497;DHT22;21609;49.298;6.844;2023-04-09T08:21:47;20.90;49.40
35497;DHT22;21609;49.298;6.844;2023-04-09T08:24:14;21.00;49.40
35497;DHT22;21609;49.298;6.844;2023-04-09T08:26:40;21.00;49.40
35497;DHT22;21609;49.298;6.844;2023-04-09T08:29:07;21.00;49.20
35497;DHT22;21609;49.298;6.844;2023-04-09T08:31:34;21.00;49.20
35497;DHT22;21609;49.298;6.844;2023-04-09T08:34:00;21.10;49.30
35497;DHT22;21609;49.298;6.844;2023-04-09T08:36:26;21.10;49.40
35497;DHT22;21609;49.298;6.844;2023-04-09T08:38:51;21.00;49.60
35497;DHT22;21609;49.298;6.844;2023-04-09T08:41:24;21.00;49.60
35497;DHT22;21609;49.298;6.844;2023-04-09T08:43:50;21.00;49.60
35497;DHT22;21609;49.298;6.844;2023-04-09T08:46:17;21.00;49.60
35497;DHT22;21609;49.298;6.844;2023-04-09T08:48:48;21.00;49.40
35497;DHT22;21609;49.298;6.844;2023-04-09T08:51:18;20.90;48.80
35497;DHT22;21609;49.298;6.844;2023-04-09T08:53:49;20.80;48.80
35497;DHT22;21609;49.298;6.844;2023-04-09T08:56:18;20.80;49.30
35497;DHT22;21609;49.298;6.844;2023-04-09T08:58:45;20.70;49.40
35497;DHT22;21609;49.298;6.844;2023-04-09T09:01:28;20.80;49.20
35497;DHT22;21609;49.298;6.844;2023-04-09T09:04:03;20.70;48.70
35497;DHT22;21609;49.298;6.844;2023-04-09T09:06:31;20.70;49.00
35497;DHT22;21609;49.298;6.844;2023-04-09T09:11:29;20.70;49.00
35497;DHT22;21609;49.298;6.844;2023-04-09T09:14:00;20.80;49.40
35497;DHT22;21609;49.298;6.844;2023-04-09T09:16:26;20.80;48.90
35497;DHT22;21609;49.298;6.844;2023-04-09T09:18:52;20.80;49.10
35497;DHT22;21609;49.298;6.844;2023-04-09T09:21:18;20.90;48.90
35497;DHT22;21609;49.298;6.844;2023-04-09T09:23:44;21.00;49.00
35497;DHT22;21609;49.298;6.844;2023-04-09T09:26:17;20.90;48.90
35497;DHT22;21609;49.298;6.844;2023-04-09T09:28:46;21.00;61.10
35497;DHT22;21609;49.298;6.844;2023-04-09T09:31:13;20.90;60.60
35497;DHT22;21609;49.298;6.844;2023-04-09T09:33:40;20.90;60.50
35497;DHT22;21609;49.298;6.844;2023-04-09T09:36:06;20.70;62.20
35497;DHT22;21609;49.298;6.844;2023-04-09T09:38:49;20.60;48.40
35497;DHT22;21609;49.298;6.844;2023-04-09T09:41:16;20.60;48.30
35497;DHT22;21609;49.298;6.844;2023-04-09T09:43:42;20.70;48.60
35497;DHT22;21609;49.298;6.844;2023-04-09T09:46:09;20.70;49.10
35497;DHT22;21609;49.298;6.844;2023-04-09T09:48:35;20.70;49.40
35497;DHT22;21609;49.298;6.844;2023-04-09T09:51:01;20.70;49.40
35497;DHT22;21609;49.298;6.844;2023-04-09T09:53:29;20.60;49.70
35497;DHT22;21609;49.298;6.844;2023-04-09T09:55:59;20.60;49.60
35497;DHT22;21609;49.298;6.844;2023-04-09T09:58:33;20.60;49.50
35497;DHT22;21609;49.298;6.844;2023-04-09T10:00:59;20.60;49.60
35497;DHT22;21609;49.298;6.844;2023-04-09T10:03:28;20.60;49.60
35497;DHT22;21609;49.298;6.844;2023-04-09T10:05:55;20.60;49.70
35497;DHT22;21609;49.298;6.844;2023-04-09T10:08:22;20.60;50.00
35497;DHT22;21609;49.298;6.844;2023-04-09T10:10:49;20.50;49.80
35497;DHT22;21609;49.298;6.844;2023-04-09T10:13:24;20.50;49.70
35497;DHT22;21609;49.298;6.844;2023-04-09T10:15:51;20.60;49.90
35497;DHT22;21609;49.298;6.844;2023-04-09T10:18:17;20.60;49.70
35497;DHT22;21609;49.298;6.844;2023-04-09T10:20:58;20.60;49.70
35497;DHT22;21609;49.298;6.844;2023-04-09T10:23:39;20.70;49.70
35497;DHT22;21609;49.298;6.844;2023-04-09T10:26:05;20.60;49.20
35497;DHT22;21609;49.298;6.844;2023-04-09T10:28:31;20.70;49.30
35497;DHT22;21609;49.298;6.844;2023-04-09T10:30:57;20.70;49.20
35497;DHT22;21609;49.298;6.844;2023-04-09T10:33:27;20.70;49.20
35497;DHT22;21609;49.298;6.844;2023-04-09T10:35:55;20.60;49.00
35497;DHT22;21609;49.298;6.844;2023-04-09T10:38:38;20.70;49.00
35497;DHT22;21609;49.298;6.844;2023-04-09T10:43:45;20.70;49.00
35497;DHT22;21609;49.298;6.844;2023-04-09T10:46:29;20.70;48.60
35497;DHT22;21609;49.298;6.844;2023-04-09T10:49:17;20.70;48.80
35497;DHT22;21609;49.298;6.844;2023-04-09T10:52:03;20.80;49.00
35497;DHT22;21609;49.298;6.844;2023-04-09T10:59:39;20.60;49.00
35497;DHT22;21609;49.298;6.844;2023-04-09T11:07:47;20.70;48.90
35497;DHT22;21609;49.298;6.844;2023-04-09T11:10:13;20.60;48.90
35497;DHT22;21609;49.298;6.844;2023-04-09T11:12:39;20.60;48.90
35497;DHT22;21609;49.298;6.844;2023-04-09T11:15:14;20.50;49.00
35497;DHT22;21609;49.298;6.844;2023-04-09T11:17:40;20.50;49.10
35497;DHT22;21609;49.298;6.844;2023-04-09T11:20:06;20.50;49.10
35497;DHT22;21609;49.298;6.844;2023-04-09T11:22:32;20.50;49.10
35497;DHT22;21609;49.298;6.844;2023-04-09T11:24:58;20.50;48.90
35497;DHT22;21609;49.298;6.844;2023-04-09T11:27:23;20.50;49.00
35497;DHT22;21609;49.298;6.844;2023-04-09T11:29:57;20.50;48.80
35497;DHT22;21609;49.298;6.844;2023-04-09T11:32:29;20.50;48.90
35497;DHT22;21609;49.298;6.844;2023-04-09T11:34:54;20.50;48.90
35497;DHT22;21609;49.298;6.844;2023-04-09T11:37:21;20.50;48.90
35497;DHT22;21609;49.298;6.844;2023-04-09T11:39:47;20.50;48.90
35497;DHT22;21609;49.298;6.844;2023-04-09T11:42:14;20.50;48.90
35497;DHT22;21609;49.298;6.844;2023-04-09T11:44:40;20.50;48.80
35497;DHT22;21609;49.298;6.844;2023-04-09T11:47:07;20.50;48.80
35497;DHT22;21609;49.298;6.844;2023-04-09T11:49:33;20.50;48.80
35497;DHT22;21609;49.298;6.844;2023-04-09T11:51:59;20.50;48.90
35497;DHT22;21609;49.298;6.844;2023-04-09T11:54:31;20.50;48.80
35497;DHT22;21609;49.298;6.844;2023-04-09T11:57:03;20.50;48.70
35497;DHT22;21609;49.298;6.844;2023-04-09T11:59:29;20.50;48.70
35497;DHT22;21609;49.298;6.844;2023-04-09T12:01:57;20.60;48.40
35497;DHT22;21609;49.298;6.844;2023-04-09T12:04:23;20.60;48.50
35497;DHT22;21609;49.298;6.844;2023-04-09T12:06:49;20.60;48.60
35497;DHT22;21609;49.298;6.844;2023-04-09T12:09:15;20.70;48.70
35497;DHT22;21609;49.298;6.844;2023-04-09T12:11:44;20.70;48.70
35497;DHT22;21609;49.298;6.844;2023-04-09T12:14:17;20.70;48.80
35497;DHT22;21609;49.298;6.844;2023-04-09T12:16:50;20.80;48.70
35497;DHT22;21609;49.298;6.844;2023-04-09T12:19:16;20.70;48.60
35497;DHT22;21609;49.298;6.844;2023-04-09T12:21:56;20.70;48.60
35497;DHT22;21609;49.298;6.844;2023-04-09T12:24:24;20.70;48.40
35497;DHT22;21609;49.298;6.844;2023-04-09T12:26:51;20.70;48.60
35497;DHT22;21609;49.298;6.844;2023-04-09T12:29:21;20.70;48.50
35497;DHT22;21609;49.298;6.844;2023-04-09T12:31:47;20.70;48.60
35497;DHT22;21609;49.298;6.844;2023-04-09T12:36:39;20.80;47.60
35497;DHT22;21609;49.298;6.844;2023-04-09T12:39:07;20.80;48.40
35497;DHT22;21609;49.298;6.844;2023-04-09T12:41:33;20.90;48.40
35497;DHT22;21609;49.298;6.844;2023-04-09T12:43:58;21.00;48.30
35497;DHT22;21609;49.298;6.844;2023-04-09T12:46:24;21.00;48.30
35497;DHT22;21609;49.298;6.844;2023-04-09T12:48:50;21.10;48.30
35497;DHT22;21609;49.298;6.844;2023-04-09T12:51:15;21.10;48.20
35497;DHT22;21609;49.298;6.844;2023-04-09T12:53:41;21.10;48.10
35497;DHT22;21609;49.298;6.844;2023-04-09T12:56:07;21.20;48.20
35497;DHT22;21609;49.298;6.844;2023-04-09T12:58:33;21.10;47.90
35497;DHT22;21609;49.298;6.844;2023-04-09T13:00:58;21.10;47.90
35497;DHT22;21609;49.298;6.844;2023-04-09T13:03:24;21.10;47.90
35497;DHT22;21609;49.298;6.844;2023-04-09T13:05:50;21.20;48.00
35497;DHT22;21609;49.298;6.844;2023-04-09T13:08:16;21.20;47.90
35497;DHT22;21609;49.298;6.844;2023-04-09T13:10:42;21.20;47.80
35497;DHT22;21609;49.298;6.844;2023-04-09T13:13:07;21.30;47.80
35497;DHT22;21609;49.298;6.844;2023-04-09T13:15:40;21.30;47.60
35497;DHT22;21609;49.298;6.844;2023-04-09T13:18:10;21.40;47.50
35497;DHT22;21609;49.298;6.844;2023-04-09T13:20:35;21.40;47.20
35497;DHT22;21609;49.298;6.844;2023-04-09T13:23:01;21.50;47.40
35497;DHT22;21609;49.298;6.844;2023-04-09T13:25:27;21.50;47.10
35497;DHT22;21609;49.298;6.844;2023-04-09T13:27:52;21.50;47.30
35497;DHT22;21609;49.298;6.844;2023-04-09T13:30:18;21.40;46.80
35497;DHT22;21609;49.298;6.844;2023-04-09T13:32:43;21.50;47.00
35497;DHT22;21609;49.298;6.844;2023-04-09T13:35:09;21.50;47.00
35497;DHT22;21609;49.298;6.844;2023-04-09T13:37:35;21.50;47.50
35497;DHT22;21609;49.298;6.844;2023-04-09T13:40:01;21.50;47.50
35497;DHT22;21609;49.298;6.844;2023-04-09T13:42:26;21.60;48.20
35497;DHT22;21609;49.298;6.844;2023-04-09T13:44:53;21.60;47.50
35497;DHT22;21609;49.298;6.844;2023-04-09T13:47:22;21.70;47.30
35497;DHT22;21609;49.298;6.844;2023-04-09T13:49:51;21.80;47.40
35497;DHT22;21609;49.298;6.844;2023-04-09T13:52:17;21.80;47.30
35497;DHT22;21609;49.298;6.844;2023-04-09T13:54:43;21.90;47.10
35497;DHT22;21609;49.298;6.844;2023-04-09T13:57:08;21.90;47.20
35497;DHT22;21609;49.298;6.844;2023-04-09T13:59:35;22.00;47.10
35497;DHT22;21609;49.298;6.844;2023-04-09T14:02:02;21.90;46.80
35497;DHT22;21609;49.298;6.844;2023-04-09T14:04:28;21.90;46.70
35497;DHT22;21609;49.298;6.844;2023-04-09T14:06:53;22.00;46.70
35497;DHT22;21609;49.298;6.844;2023-04-09T14:09:19;22.10;46.40
35497;DHT22;21609;49.298;6.844;2023-04-09T14:11:45;22.00;46.10
35497;DHT22;21609;49.298;6.844;2023-04-09T14:14:10;22.00;46.10
35497;DHT22;21609;49.298;6.844;2023-04-09T14:16:36;22.00;46.50
35497;DHT22;21609;49.298;6.844;2023-04-09T14:19:01;22.00;46.20
35497;DHT22;21609;49.298;6.844;2023-04-09T14:21:28;22.00;46.30
35497;DHT22;21609;49.298;6.844;2023-04-09T14:23:53;22.10;46.40
35497;DHT22;21609;49.298;6.844;2023-04-09T14:26:19;22.20;46.70
35497;DHT22;21609;49.298;6.844;2023-04-09T14:28:45;22.20;46.20
35497;DHT22;21609;49.298;6.844;2023-04-09T14:31:12;22.20;46.30
35497;DHT22;21609;49.298;6.844;2023-04-09T14:33:39;22.20;46.20
35497;DHT22;21609;49.298;6.844;2023-04-09T14:36:05;22.20;46.00
35497;DHT22;21609;49.298;6.844;2023-04-09T14:38:31;22.20;45.90
35497;DHT22;21609;49.298;6.844;2023-04-09T14:40:57;22.30;46.00
35497;DHT22;21609;49.298;6.844;2023-04-09T14:43:22;22.20;46.10
35497;DHT22;21609;49.298;6.844;2023-04-09T14:45:48;22.20;46.30
35497;DHT22;21609;49.298;6.844;2023-04-09T14:48:13;22.20;46.10
35497;DHT22;21609;49.298;6.844;2023-04-09T14:50:42;22.20;46.30
35497;DHT22;21609;49.298;6.844;2023-04-09T14:53:08;22.20;46.40
35497;DHT22;21609;49.298;6.844;2023-04-09T14:55:34;22.10;46.40
35497;DHT22;21609;49.298;6.844;2023-04-09T14:58:00;22.10;46.40
35497;DHT22;21609;49.298;6.844;2023-04-09T15:00:28;22.10;46.30
35497;DHT22;21609;49.298;6.844;2023-04-09T15:02:53;22.10;46.20
35497;DHT22;21609;49.298;6.844;2023-04-09T15:05:19;22.10;46.40
35497;DHT22;21609;49.298;6.844;2023-04-09T15:07:45;22.10;46.50
35497;DHT22;21609;49.298;6.844;2023-04-09T15:10:10;22.20;46.50
35497;DHT22;21609;49.298;6.844;2023-04-09T15:12:36;22.20;46.40
35497;DHT22;21609;49.298;6.844;2023-04-09T15:15:05;22.20;46.30
35497;DHT22;21609;49.298;6.844;2023-04-09T15:17:31;22.20;46.20
35497;DHT22;21609;49.298;6.844;2023-04-09T15:19:57;22.20;46.00
35497;DHT22;21609;49.298;6.844;2023-04-09T15:22:22;22.30;45.90
35497;DHT22;21609;49.298;6.844;2023-04-09T15:24:50;22.20;45.50
35497;DHT22;21609;49.298;6.844;2023-04-09T15:27:16;22.20;45.70
35497;DHT22;21609;49.298;6.844;2023-04-09T15:29:44;22.30;45.50
35497;DHT22;21609;49.298;6.844;2023-04-09T15:32:11;22.20;45.50
35497;DHT22;21609;49.298;6.844;2023-04-09T15:34:36;22.10;45.40
35497;DHT22;21609;49.298;6.844;2023-04-09T15:37:02;22.20;45.30
35497;DHT22;21609;49.298;6.844;2023-04-09T15:39:27;22.10;45.30
35497;DHT22;21609;49.298;6.844;2023-04-09T15:41:54;22.10;45.40
35497;DHT22;21609;49.298;6.844;2023-04-09T15:44:23;22.00;45.40
35497;DHT22;21609;49.298;6.844;2023-04-09T15:46:49;22.10;45.70
35497;DHT22;21609;49.298;6.844;2023-04-09T15:49:15;22.10;45.80
35497;DHT22;21609;49.298;6.844;2023-04-09T15:51:40;22.00;45.80